sensor_id;sensor_type;location;lat;lon;timestamp;temperature;humidity
14370;DHT22;7268;50.792;0.252;2023-05-16T00:02:22;8.30;91.10
14370;DHT22;7268;50.792;0.252;2023-05-16T00:04:51;8.30;91.10
14370;DHT22;7268;50.792;0.252;2023-05-16T00:07:18;8.20;90.90
14370;DHT22;7268;50.792;0.252;2023-05-16T00:09:45;8.20;91.10
14370;DHT22;7268;50.792;0.252;2023-05-16T00:12:18;8.20;90.90
14370;DHT22;7268;50.792;0.252;2023-05-16T00:14:45;8.20;90.90
14370;DHT22;7268;50.792;0.252;2023-05-16T00:17:22;8.30;90.90
14370;DHT22;7268;50.792;0.252;2023-05-16T00:19:55;8.30;90.80
14370;DHT22;7268;50.792;0.252;2023-05-16T00:22:24;8.20;91.10
14370;DHT22;7268;50.792;0.252;2023-05-16T00:24:51;8.20;90.80
14370;DHT22;7268;50.792;0.252;2023-05-16T00:27:18;8.10;91.00
14370;DHT22;7268;50.792;0.252;2023-05-16T00:29:45;8.20;90.80
14370;DHT22;7268;50.792;0.252;2023-05-16T00:32:11;8.20;90.70
14370;DHT22;7268;50.792;0.252;2023-05-16T00:34:39;8.10;90.70
14370;DHT22;7268;50.792;0.252;2023-05-16T00:37:06;8.10;90.90
14370;DHT22;7268;50.792;0.252;2023-05-16T00:39:32;8.00;90.90
14370;DHT22;7268;50.792;0.252;2023-05-16T00:41:59;8.00;90.80
14370;DHT22;7268;50.792;0.252;2023-05-16T00:44:27;7.90;90.90
14370;DHT22;7268;50.792;0.252;2023-05-16T00:46:54;7.90;90.90
14370;DHT22;7268;50.792;0.252;2023-05-16T00:49:21;7.90;91.00
14370;DHT22;7268;50.792;0.252;2023-05-16T00:51:48;7.90;91.10
14370;DHT22;7268;50.792;0.252;2023-05-16T00:54:15;8.00;90.60
14370;DHT22;7268;50.792;0.252;2023-05-16T00:56:42;8.00;90.40
14370;DHT22;7268;50.792;0.252;2023-05-16T00:59:09;8.00;90.40
14370;DHT22;7268;50.792;0.252;2023-05-16T01:01:36;8.00;90.40
14370;DHT22;7268;50.792;0.252;2023-05-16T01:04:04;8.00;90.40
14370;DHT22;7268;50.792;0.252;2023-05-16T01:06:34;8.00;90.30
14370;DHT22;7268;50.792;0.252;2023-05-16T01:09:02;7.90;90.30
14370;DHT22;7268;50.792;0.252;2023-05-16T01:11:58;8.10;90.20
14370;DHT22;7268;50.792;0.252;2023-05-16T01:19:55;8.00;90.30
14370;DHT22;7268;50.792;0.252;2023-05-16T01:28:24;8.30;90.00
14370;DHT22;7268;50.792;0.252;2023-05-16T01:30:52;8.30;89.90
14370;DHT22;7268;50.792;0.252;2023-05-16T01:33:19;8.30;89.90
14370;DHT22;7268;50.792;0.252;2023-05-16T01:35:55;8.20;89.90
14370;DHT22;7268;50.792;0.252;2023-05-16T01:38:55;8.20;90.00
14370;DHT22;7268;50.792;0.252;2023-05-16T01:44:27;8.10;90.60
14370;DHT22;7268;50.792;0.252;2023-05-16T01:46:58;8.00;90.70
14370;DHT22;7268;50.792;0.252;2023-05-16T01:49:34;8.10;90.70
14370;DHT22;7268;50.792;0.252;2023-05-16T01:52:08;8.10;90.60
14370;DHT22;7268;50.792;0.252;2023-05-16T01:54:38;8.10;90.60
14370;DHT22;7268;50.792;0.252;2023-05-16T01:57:08;8.00;90.60
14370;DHT22;7268;50.792;0.252;2023-05-16T01:59:35;7.90;90.60
14370;DHT22;7268;50.792;0.252;2023-05-16T02:02:03;7.90;91.00
14370;DHT22;7268;50.792;0.252;2023-05-16T02:04:30;7.90;91.20
14370;DHT22;7268;50.792;0.252;2023-05-16T02:06:57;8.00;91.00
14370;DHT22;7268;50.792;0.252;2023-05-16T02:09:29;8.00;90.90
14370;DHT22;7268;50.792;0.252;2023-05-16T02:11:56;8.10;90.60
14370;DHT22;7268;50.792;0.252;2023-05-16T02:14:22;8.10;90.50
14370;DHT22;7268;50.792;0.252;2023-05-16T02:16:51;8.00;90.40
14370;DHT22;7268;50.792;0.252;2023-05-16T02:19:18;8.10;90.30
14370;DHT22;7268;50.792;0.252;2023-05-16T02:21:45;8.10;90.40
14370;DHT22;7268;50.792;0.252;2023-05-16T02:24:12;8.10;90.40
14370;DHT22;7268;50.792;0.252;2023-05-16T02:26:39;7.90;90.50
14370;DHT22;7268;50.792;0.252;2023-05-16T02:29:06;7.80;90.60
14370;DHT22;7268;50.792;0.252;2023-05-16T02:31:33;7.70;90.80
14370;DHT22;7268;50.792;0.252;2023-05-16T02:34:03;7.80;90.90
14370;DHT22;7268;50.792;0.252;2023-05-16T02:36:29;7.80;90.90
14370;DHT22;7268;50.792;0.252;2023-05-16T02:38:57;7.80;90.80
14370;DHT22;7268;50.792;0.252;2023-05-16T02:41:24;7.80;90.70
14370;DHT22;7268;50.792;0.252;2023-05-16T02:43:52;7.90;90.60
14370;DHT22;7268;50.792;0.252;2023-05-16T02:46:32;7.80;90.40
14370;DHT22;7268;50.792;0.252;2023-05-16T02:49:00;7.90;90.40
14370;DHT22;7268;50.792;0.252;2023-05-16T02:51:28;8.00;90.40
14370;DHT22;7268;50.792;0.252;2023-05-16T02:53:54;8.00;90.20
14370;DHT22;7268;50.792;0.252;2023-05-16T02:56:25;8.00;90.10
14370;DHT22;7268;50.792;0.252;2023-05-16T02:58:54;8.00;90.10
14370;DHT22;7268;50.792;0.252;2023-05-16T03:01:21;7.90;90.20
14370;DHT22;7268;50.792;0.252;2023-05-16T03:03:48;8.10;90.20
14370;DHT22;7268;50.792;0.252;2023-05-16T03:06:15;7.90;90.10
14370;DHT22;7268;50.792;0.252;2023-05-16T03:08:42;7.90;90.30
14370;DHT22;7268;50.792;0.252;2023-05-16T03:11:09;7.90;90.30
14370;DHT22;7268;50.792;0.252;2023-05-16T03:13:38;8.00;90.30
14370;DHT22;7268;50.792;0.252;2023-05-16T03:16:05;7.90;90.30
14370;DHT22;7268;50.792;0.252;2023-05-16T03:18:33;8.00;90.30
14370;DHT22;7268;50.792;0.252;2023-05-16T03:21:03;8.00;90.30
14370;DHT22;7268;50.792;0.252;2023-05-16T03:23:30;7.90;90.30
14370;DHT22;7268;50.792;0.252;2023-05-16T03:25:57;8.10;90.40
14370;DHT22;7268;50.792;0.252;2023-05-16T03:28:24;8.10;90.40
14370;DHT22;7268;50.792;0.252;2023-05-16T03:30:51;8.10;90.40
14370;DHT22;7268;50.792;0.252;2023-05-16T03:33:18;8.10;90.50
14370;DHT22;7268;50.792;0.252;2023-05-16T03:35:45;8.10;90.60
14370;DHT22;7268;50.792;0.252;2023-05-16T03:38:12;8.20;90.60
14370;DHT22;7268;50.792;0.252;2023-05-16T03:40:40;8.20;90.60
14370;DHT22;7268;50.792;0.252;2023-05-16T03:43:07;8.30;90.30
14370;DHT22;7268;50.792;0.252;2023-05-16T03:45:34;8.40;90.20
14370;DHT22;7268;50.792;0.252;2023-05-16T03:48:01;8.30;90.10
14370;DHT22;7268;50.792;0.252;2023-05-16T03:50:28;8.30;90.20
14370;DHT22;7268;50.792;0.252;2023-05-16T03:52:55;8.30;90.30
14370;DHT22;7268;50.792;0.252;2023-05-16T03:55:22;8.20;90.50
14370;DHT22;7268;50.792;0.252;2023-05-16T03:57:49;8.20;90.60
14370;DHT22;7268;50.792;0.252;2023-05-16T04:00:18;8.20;91.00
14370;DHT22;7268;50.792;0.252;2023-05-16T04:02:44;8.20;90.70
14370;DHT22;7268;50.792;0.252;2023-05-16T04:05:12;8.30;90.70
14370;DHT22;7268;50.792;0.252;2023-05-16T04:07:39;8.20;90.80
14370;DHT22;7268;50.792;0.252;2023-05-16T04:10:07;8.20;90.90
14370;DHT22;7268;50.792;0.252;2023-05-16T04:12:37;8.10;90.90
14370;DHT22;7268;50.792;0.252;2023-05-16T04:15:04;8.20;91.00
14370;DHT22;7268;50.792;0.252;2023-05-16T04:17:34;8.10;90.90
14370;DHT22;7268;50.792;0.252;2023-05-16T04:20:05;8.10;91.00
14370;DHT22;7268;50.792;0.252;2023-05-16T04:22:33;8.10;91.10
14370;DHT22;7268;50.792;0.252;2023-05-16T04:25:03;8.10;91.00
14370;DHT22;7268;50.792;0.252;2023-05-16T04:27:50;8.10;91.10
14370;DHT22;7268;50.792;0.252;2023-05-16T04:30:18;8.10;91.10
14370;DHT22;7268;50.792;0.252;2023-05-16T04:32:45;8.10;91.10
14370;DHT22;7268;50.792;0.252;2023-05-16T04:35:12;8.10;91.10
14370;DHT22;7268;50.792;0.252;2023-05-16T04:37:39;8.20;91.10
14370;DHT22;7268;50.792;0.252;2023-05-16T04:40:06;8.20;90.90
14370;DHT22;7268;50.792;0.252;2023-05-16T04:42:35;8.30;90.80
14370;DHT22;7268;50.792;0.252;2023-05-16T04:45:02;8.40;90.80
14370;DHT22;7268;50.792;0.252;2023-05-16T04:47:29;8.50;90.90
14370;DHT22;7268;50.792;0.252;2023-05-16T04:49:57;8.40;91.00
14370;DHT22;7268;50.792;0.252;2023-05-16T04:52:26;8.40;91.20
14370;DHT22;7268;50.792;0.252;2023-05-16T04:54:53;8.40;91.50
14370;DHT22;7268;50.792;0.252;2023-05-16T04:57:20;8.60;91.60
14370;DHT22;7268;50.792;0.252;2023-05-16T04:59:47;8.70;91.60
14370;DHT22;7268;50.792;0.252;2023-05-16T05:02:14;8.70;91.90
14370;DHT22;7268;50.792;0.252;2023-05-16T05:04:41;8.80;91.80
14370;DHT22;7268;50.792;0.252;2023-05-16T05:07:08;8.90;91.70
14370;DHT22;7268;50.792;0.252;2023-05-16T05:09:35;9.00;91.50
14370;DHT22;7268;50.792;0.252;2023-05-16T05:12:07;9.00;91.20
14370;DHT22;7268;50.792;0.252;2023-05-16T05:14:34;9.10;91.10
14370;DHT22;7268;50.792;0.252;2023-05-16T05:17:01;9.10;91.00
14370;DHT22;7268;50.792;0.252;2023-05-16T05:19:29;9.10;91.00
14370;DHT22;7268;50.792;0.252;2023-05-16T05:21:56;9.20;91.00
14370;DHT22;7268;50.792;0.252;2023-05-16T05:24:24;9.20;91.30
14370;DHT22;7268;50.792;0.252;2023-05-16T05:26:51;9.20;91.50
14370;DHT22;7268;50.792;0.252;2023-05-16T05:29:18;9.30;91.70
14370;DHT22;7268;50.792;0.252;2023-05-16T05:31:45;9.30;91.80
14370;DHT22;7268;50.792;0.252;2023-05-16T05:34:13;9.30;91.80
14370;DHT22;7268;50.792;0.252;2023-05-16T05:36:40;9.30;91.90
14370;DHT22;7268;50.792;0.252;2023-05-16T05:39:07;9.40;91.80
14370;DHT22;7268;50.792;0.252;2023-05-16T05:41:34;9.50;91.80
14370;DHT22;7268;50.792;0.252;2023-05-16T05:44:01;9.60;91.60
14370;DHT22;7268;50.792;0.252;2023-05-16T05:46:28;9.80;91.40
14370;DHT22;7268;50.792;0.252;2023-05-16T05:48:56;10.20;91.30
14370;DHT22;7268;50.792;0.252;2023-05-16T05:51:23;10.90;90.00
14370;DHT22;7268;50.792;0.252;2023-05-16T05:53:51;11.60;86.00
14370;DHT22;7268;50.792;0.252;2023-05-16T05:56:19;12.10;83.90
14370;DHT22;7268;50.792;0.252;2023-05-16T05:58:46;12.60;81.30
14370;DHT22;7268;50.792;0.252;2023-05-16T06:01:16;12.90;80.30
14370;DHT22;7268;50.792;0.252;2023-05-16T06:03:43;13.60;77.90
14370;DHT22;7268;50.792;0.252;2023-05-16T06:06:10;14.10;75.80
14370;DHT22;7268;50.792;0.252;2023-05-16T06:08:37;14.30;75.50
14370;DHT22;7268;50.792;0.252;2023-05-16T06:11:04;14.40;73.70
14370;DHT22;7268;50.792;0.252;2023-05-16T06:13:31;14.60;73.70
14370;DHT22;7268;50.792;0.252;2023-05-16T06:15:58;14.40;73.80
14370;DHT22;7268;50.792;0.252;2023-05-16T06:18:25;14.40;73.40
14370;DHT22;7268;50.792;0.252;2023-05-16T06:20:52;14.80;71.90
14370;DHT22;7268;50.792;0.252;2023-05-16T06:23:19;15.10;71.30
14370;DHT22;7268;50.792;0.252;2023-05-16T06:25:50;15.40;70.10
14370;DHT22;7268;50.792;0.252;2023-05-16T06:28:17;15.40;68.60
14370;DHT22;7268;50.792;0.252;2023-05-16T06:30:44;15.90;67.60
14370;DHT22;7268;50.792;0.252;2023-05-16T06:33:14;16.00;66.00
14370;DHT22;7268;50.792;0.252;2023-05-16T06:35:41;16.40;64.70
14370;DHT22;7268;50.792;0.252;2023-05-16T06:38:10;16.40;63.10
14370;DHT22;7268;50.792;0.252;2023-05-16T06:40:37;16.40;63.10
14370;DHT22;7268;50.792;0.252;2023-05-16T06:43:04;16.80;62.70
14370;DHT22;7268;50.792;0.252;2023-05-16T06:45:31;17.30;60.10
14370;DHT22;7268;50.792;0.252;2023-05-16T06:47:58;16.90;61.50
14370;DHT22;7268;50.792;0.252;2023-05-16T06:50:25;17.00;62.50
14370;DHT22;7268;50.792;0.252;2023-05-16T06:52:52;17.30;61.50
14370;DHT22;7268;50.792;0.252;2023-05-16T06:55:19;17.80;61.70
14370;DHT22;7268;50.792;0.252;2023-05-16T06:57:46;18.50;58.10
14370;DHT22;7268;50.792;0.252;2023-05-16T07:00:14;18.10;59.50
14370;DHT22;7268;50.792;0.252;2023-05-16T07:02:41;18.00;58.80
14370;DHT22;7268;50.792;0.252;2023-05-16T07:05:08;17.80;62.00
14370;DHT22;7268;50.792;0.252;2023-05-16T07:07:35;18.70;58.50
14370;DHT22;7268;50.792;0.252;2023-05-16T07:10:03;18.70;58.00
14370;DHT22;7268;50.792;0.252;2023-05-16T07:12:30;18.30;60.20
14370;DHT22;7268;50.792;0.252;2023-05-16T07:14:57;18.60;58.10
14370;DHT22;7268;50.792;0.252;2023-05-16T07:17:24;18.00;59.10
14370;DHT22;7268;50.792;0.252;2023-05-16T07:19:51;18.70;58.80
14370;DHT22;7268;50.792;0.252;2023-05-16T07:22:17;18.90;58.40
14370;DHT22;7268;50.792;0.252;2023-05-16T07:24:44;18.90;59.20
14370;DHT22;7268;50.792;0.252;2023-05-16T07:27:12;19.60;56.90
14370;DHT22;7268;50.792;0.252;2023-05-16T07:29:39;19.50;56.70
14370;DHT22;7268;50.792;0.252;2023-05-16T07:32:07;19.50;58.30
14370;DHT22;7268;50.792;0.252;2023-05-16T07:34:34;19.60;57.80
14370;DHT22;7268;50.792;0.252;2023-05-16T07:37:01;19.30;56.50
14370;DHT22;7268;50.792;0.252;2023-05-16T07:39:28;20.00;55.90
14370;DHT22;7268;50.792;0.252;2023-05-16T07:41:55;19.60;57.20
14370;DHT22;7268;50.792;0.252;2023-05-16T07:44:22;20.00;56.70
14370;DHT22;7268;50.792;0.252;2023-05-16T07:46:49;19.60;58.10
14370;DHT22;7268;50.792;0.252;2023-05-16T07:49:17;19.70;58.00
14370;DHT22;7268;50.792;0.252;2023-05-16T07:51:46;20.00;57.20
14370;DHT22;7268;50.792;0.252;2023-05-16T07:54:13;20.60;56.50
14370;DHT22;7268;50.792;0.252;2023-05-16T07:56:40;20.90;54.60
14370;DHT22;7268;50.792;0.252;2023-05-16T07:59:09;21.30;54.20
14370;DHT22;7268;50.792;0.252;2023-05-16T08:01:36;21.50;52.80
14370;DHT22;7268;50.792;0.252;2023-05-16T08:04:04;21.20;53.90
14370;DHT22;7268;50.792;0.252;2023-05-16T08:06:31;20.60;55.40
14370;DHT22;7268;50.792;0.252;2023-05-16T08:08:58;20.50;54.70
14370;DHT22;7268;50.792;0.252;2023-05-16T08:11:25;20.80;54.70
14370;DHT22;7268;50.792;0.252;2023-05-16T08:13:52;22.10;54.10
14370;DHT22;7268;50.792;0.252;2023-05-16T08:16:19;23.50;50.80
14370;DHT22;7268;50.792;0.252;2023-05-16T08:18:46;23.70;48.40
14370;DHT22;7268;50.792;0.252;2023-05-16T08:21:13;23.40;48.40
14370;DHT22;7268;50.792;0.252;2023-05-16T08:23:42;22.70;48.00
14370;DHT22;7268;50.792;0.252;2023-05-16T08:26:09;22.00;50.20
14370;DHT22;7268;50.792;0.252;2023-05-16T08:28:37;22.40;49.30
14370;DHT22;7268;50.792;0.252;2023-05-16T08:31:05;23.00;50.40
14370;DHT22;7268;50.792;0.252;2023-05-16T08:33:32;24.10;45.90
14370;DHT22;7268;50.792;0.252;2023-05-16T08:35:59;24.30;43.60
14370;DHT22;7268;50.792;0.252;2023-05-16T08:38:27;24.00;45.20
14370;DHT22;7268;50.792;0.252;2023-05-16T08:40:54;24.30;45.70
14370;DHT22;7268;50.792;0.252;2023-05-16T08:43:21;24.70;44.50
14370;DHT22;7268;50.792;0.252;2023-05-16T08:45:49;24.20;46.20
14370;DHT22;7268;50.792;0.252;2023-05-16T08:48:22;24.00;46.80
14370;DHT22;7268;50.792;0.252;2023-05-16T08:50:49;25.00;44.80
14370;DHT22;7268;50.792;0.252;2023-05-16T08:53:26;24.50;43.80
14370;DHT22;7268;50.792;0.252;2023-05-16T08:55:57;24.80;44.80
14370;DHT22;7268;50.792;0.252;2023-05-16T08:58:25;25.20;42.40
14370;DHT22;7268;50.792;0.252;2023-05-16T09:00:52;25.20;43.10
14370;DHT22;7268;50.792;0.252;2023-05-16T09:03:20;25.20;43.40
14370;DHT22;7268;50.792;0.252;2023-05-16T09:05:50;26.40;42.30
14370;DHT22;7268;50.792;0.252;2023-05-16T09:08:18;25.80;43.60
14370;DHT22;7268;50.792;0.252;2023-05-16T09:10:45;26.40;39.40
14370;DHT22;7268;50.792;0.252;2023-05-16T09:13:12;25.10;39.60
14370;DHT22;7268;50.792;0.252;2023-05-16T09:15:40;24.60;42.70
14370;DHT22;7268;50.792;0.252;2023-05-16T09:18:11;25.20;42.40
14370;DHT22;7268;50.792;0.252;2023-05-16T09:20:43;26.30;40.90
14370;DHT22;7268;50.792;0.252;2023-05-16T09:23:23;27.30;39.70
14370;DHT22;7268;50.792;0.252;2023-05-16T09:25:53;27.50;38.70
14370;DHT22;7268;50.792;0.252;2023-05-16T09:28:21;28.10;37.50
14370;DHT22;7268;50.792;0.252;2023-05-16T09:30:58;28.20;37.20
14370;DHT22;7268;50.792;0.252;2023-05-16T09:33:28;25.40;39.80
14370;DHT22;7268;50.792;0.252;2023-05-16T09:35:59;24.20;42.90
14370;DHT22;7268;50.792;0.252;2023-05-16T09:38:30;22.40;47.30
14370;DHT22;7268;50.792;0.252;2023-05-16T09:40:57;22.90;49.80
14370;DHT22;7268;50.792;0.252;2023-05-16T09:43:25;24.60;42.60
14370;DHT22;7268;50.792;0.252;2023-05-16T09:45:52;24.90;41.40
14370;DHT22;7268;50.792;0.252;2023-05-16T09:48:20;24.70;41.70
14370;DHT22;7268;50.792;0.252;2023-05-16T09:51:06;25.60;42.70
14370;DHT22;7268;50.792;0.252;2023-05-16T09:53:33;25.80;41.60
14370;DHT22;7268;50.792;0.252;2023-05-16T09:56:11;26.70;40.00
14370;DHT22;7268;50.792;0.252;2023-05-16T09:58:39;24.30;42.30
14370;DHT22;7268;50.792;0.252;2023-05-16T10:01:08;22.30;45.30
14370;DHT22;7268;50.792;0.252;2023-05-16T10:03:38;20.80;48.20
14370;DHT22;7268;50.792;0.252;2023-05-16T10:06:07;20.80;49.30
14370;DHT22;7268;50.792;0.252;2023-05-16T10:08:35;22.80;49.20
14370;DHT22;7268;50.792;0.252;2023-05-16T10:11:04;24.00;43.40
14370;DHT22;7268;50.792;0.252;2023-05-16T10:13:35;23.30;43.80
14370;DHT22;7268;50.792;0.252;2023-05-16T10:16:11;22.60;45.40
14370;DHT22;7268;50.792;0.252;2023-05-16T10:18:40;20.90;47.80
14370;DHT22;7268;50.792;0.252;2023-05-16T10:21:18;20.40;51.20
14370;DHT22;7268;50.792;0.252;2023-05-16T10:23:49;20.80;48.30
14370;DHT22;7268;50.792;0.252;2023-05-16T10:26:17;20.60;48.90
14370;DHT22;7268;50.792;0.252;2023-05-16T10:28:47;20.90;49.20
14370;DHT22;7268;50.792;0.252;2023-05-16T10:31:18;23.30;47.60
14370;DHT22;7268;50.792;0.252;2023-05-16T10:33:46;23.70;42.90
14370;DHT22;7268;50.792;0.252;2023-05-16T10:36:13;24.40;41.30
14370;DHT22;7268;50.792;0.252;2023-05-16T10:38:42;24.20;41.50
14370;DHT22;7268;50.792;0.252;2023-05-16T10:41:11;22.50;44.00
14370;DHT22;7268;50.792;0.252;2023-05-16T10:43:38;22.10;46.10
14370;DHT22;7268;50.792;0.252;2023-05-16T10:46:09;21.20;47.30
14370;DHT22;7268;50.792;0.252;2023-05-16T10:48:40;20.70;48.90
14370;DHT22;7268;50.792;0.252;2023-05-16T10:53:53;23.50;46.40
14370;DHT22;7268;50.792;0.252;2023-05-16T10:56:26;25.60;39.20
14370;DHT22;7268;50.792;0.252;2023-05-16T10:58:54;26.30;36.80
14370;DHT22;7268;50.792;0.252;2023-05-16T11:01:33;25.50;38.40
14370;DHT22;7268;50.792;0.252;2023-05-16T11:04:09;24.80;39.70
14370;DHT22;7268;50.792;0.252;2023-05-16T11:09:26;23.80;41.60
14370;DHT22;7268;50.792;0.252;2023-05-16T11:12:01;22.50;44.00
14370;DHT22;7268;50.792;0.252;2023-05-16T11:17:11;19.90;47.10
14370;DHT22;7268;50.792;0.252;2023-05-16T11:19:56;19.60;48.00
14370;DHT22;7268;50.792;0.252;2023-05-16T11:22:25;21.70;45.70
14370;DHT22;7268;50.792;0.252;2023-05-16T11:27:33;23.50;42.00
14370;DHT22;7268;50.792;0.252;2023-05-16T11:30:10;24.10;42.00
14370;DHT22;7268;50.792;0.252;2023-05-16T11:32:40;22.70;42.80
14370;DHT22;7268;50.792;0.252;2023-05-16T11:35:11;21.00;46.20
14370;DHT22;7268;50.792;0.252;2023-05-16T11:37:51;20.10;50.10
14370;DHT22;7268;50.792;0.252;2023-05-16T11:40:18;19.50;51.10
14370;DHT22;7268;50.792;0.252;2023-05-16T11:42:46;19.20;50.80
14370;DHT22;7268;50.792;0.252;2023-05-16T11:45:18;20.40;50.20
14370;DHT22;7268;50.792;0.252;2023-05-16T11:47:47;22.70;43.70
14370;DHT22;7268;50.792;0.252;2023-05-16T11:50:16;25.10;40.70
14370;DHT22;7268;50.792;0.252;2023-05-16T11:52:47;25.90;39.40
14370;DHT22;7268;50.792;0.252;2023-05-16T11:55:15;25.20;35.40
14370;DHT22;7268;50.792;0.252;2023-05-16T11:57:58;22.60;40.20
14370;DHT22;7268;50.792;0.252;2023-05-16T12:00:26;20.80;41.70
14370;DHT22;7268;50.792;0.252;2023-05-16T12:02:54;22.10;44.80
14370;DHT22;7268;50.792;0.252;2023-05-16T12:05:27;24.10;44.10
14370;DHT22;7268;50.792;0.252;2023-05-16T12:07:56;25.10;42.10
14370;DHT22;7268;50.792;0.252;2023-05-16T12:10:25;24.70;39.70
14370;DHT22;7268;50.792;0.252;2023-05-16T12:12:52;22.30;40.60
14370;DHT22;7268;50.792;0.252;2023-05-16T12:15:20;22.30;41.50
14370;DHT22;7268;50.792;0.252;2023-05-16T12:17:48;23.40;41.10
14370;DHT22;7268;50.792;0.252;2023-05-16T12:20:16;23.70;40.50
14370;DHT22;7268;50.792;0.252;2023-05-16T12:22:44;22.00;43.10
14370;DHT22;7268;50.792;0.252;2023-05-16T12:25:31;21.50;46.90
14370;DHT22;7268;50.792;0.252;2023-05-16T12:28:00;20.90;48.30
14370;DHT22;7268;50.792;0.252;2023-05-16T12:30:29;20.40;48.50
14370;DHT22;7268;50.792;0.252;2023-05-16T12:33:01;20.60;48.70
14370;DHT22;7268;50.792;0.252;2023-05-16T12:35:36;20.50;45.00
14370;DHT22;7268;50.792;0.252;2023-05-16T12:38:05;21.80;47.70
14370;DHT22;7268;50.792;0.252;2023-05-16T12:40:35;23.10;42.80
14370;DHT22;7268;50.792;0.252;2023-05-16T12:43:04;23.30;41.80
14370;DHT22;7268;50.792;0.252;2023-05-16T12:45:32;22.40;44.70
14370;DHT22;7268;50.792;0.252;2023-05-16T12:48:10;21.50;45.10
14370;DHT22;7268;50.792;0.252;2023-05-16T12:50:38;21.30;45.30
14370;DHT22;7268;50.792;0.252;2023-05-16T12:53:10;22.50;45.90
14370;DHT22;7268;50.792;0.252;2023-05-16T12:55:39;23.20;41.80
14370;DHT22;7268;50.792;0.252;2023-05-16T12:58:06;23.30;40.30
14370;DHT22;7268;50.792;0.252;2023-05-16T13:00:33;23.50;40.60
14370;DHT22;7268;50.792;0.252;2023-05-16T13:03:03;22.70;41.90
14370;DHT22;7268;50.792;0.252;2023-05-16T13:05:32;21.60;45.90
14370;DHT22;7268;50.792;0.252;2023-05-16T13:08:00;20.80;45.50
14370;DHT22;7268;50.792;0.252;2023-05-16T13:10:28;20.40;46.40
14370;DHT22;7268;50.792;0.252;2023-05-16T13:12:55;20.60;46.70
14370;DHT22;7268;50.792;0.252;2023-05-16T13:15:25;21.00;44.50
14370;DHT22;7268;50.792;0.252;2023-05-16T13:17:53;21.20;42.00
14370;DHT22;7268;50.792;0.252;2023-05-16T13:20:22;21.50;44.20
14370;DHT22;7268;50.792;0.252;2023-05-16T13:22:50;21.50;44.60
14370;DHT22;7268;50.792;0.252;2023-05-16T13:25:17;21.00;45.40
14370;DHT22;7268;50.792;0.252;2023-05-16T13:27:44;20.40;47.50
14370;DHT22;7268;50.792;0.252;2023-05-16T13:30:12;20.20;48.70
14370;DHT22;7268;50.792;0.252;2023-05-16T13:32:39;20.20;49.30
14370;DHT22;7268;50.792;0.252;2023-05-16T13:35:07;20.30;46.30
14370;DHT22;7268;50.792;0.252;2023-05-16T13:37:36;20.50;48.30
14370;DHT22;7268;50.792;0.252;2023-05-16T13:40:03;20.40;46.00
14370;DHT22;7268;50.792;0.252;2023-05-16T13:42:30;20.50;47.60
14370;DHT22;7268;50.792;0.252;2023-05-16T13:44:57;20.90;47.70
14370;DHT22;7268;50.792;0.252;2023-05-16T13:47:24;21.00;46.60
14370;DHT22;7268;50.792;0.252;2023-05-16T13:49:51;20.90;47.30
14370;DHT22;7268;50.792;0.252;2023-05-16T13:52:19;20.10;46.40
14370;DHT22;7268;50.792;0.252;2023-05-16T13:54:46;20.20;49.60
14370;DHT22;7268;50.792;0.252;2023-05-16T13:57:13;20.30;48.80
14370;DHT22;7268;50.792;0.252;2023-05-16T13:59:40;20.50;47.50
14370;DHT22;7268;50.792;0.252;2023-05-16T14:02:10;20.50;48.70
14370;DHT22;7268;50.792;0.252;2023-05-16T14:04:37;20.80;49.80
14370;DHT22;7268;50.792;0.252;2023-05-16T14:07:04;21.20;46.30
14370;DHT22;7268;50.792;0.252;2023-05-16T14:09:31;21.10;46.20
14370;DHT22;7268;50.792;0.252;2023-05-16T14:12:00;21.00;46.90
14370;DHT22;7268;50.792;0.252;2023-05-16T14:14:30;20.70;46.90
14370;DHT22;7268;50.792;0.252;2023-05-16T14:16:57;20.80;47.20
14370;DHT22;7268;50.792;0.252;2023-05-16T14:19:25;20.40;52.40
14370;DHT22;7268;50.792;0.252;2023-05-16T14:21:53;20.10;54.40
14370;DHT22;7268;50.792;0.252;2023-05-16T14:24:22;20.10;50.90
14370;DHT22;7268;50.792;0.252;2023-05-16T14:26:49;19.90;47.80
14370;DHT22;7268;50.792;0.252;2023-05-16T14:29:24;19.80;49.50
14370;DHT22;7268;50.792;0.252;2023-05-16T14:31:51;19.90;50.20
14370;DHT22;7268;50.792;0.252;2023-05-16T14:34:19;20.10;48.60
14370;DHT22;7268;50.792;0.252;2023-05-16T14:36:48;20.10;47.40
14370;DHT22;7268;50.792;0.252;2023-05-16T14:39:19;20.10;48.20
14370;DHT22;7268;50.792;0.252;2023-05-16T14:41:47;20.10;48.90
14370;DHT22;7268;50.792;0.252;2023-05-16T14:44:14;20.20;50.00
14370;DHT22;7268;50.792;0.252;2023-05-16T14:46:42;20.30;46.70
14370;DHT22;7268;50.792;0.252;2023-05-16T14:49:12;20.10;46.30
14370;DHT22;7268;50.792;0.252;2023-05-16T14:51:43;19.90;49.40
14370;DHT22;7268;50.792;0.252;2023-05-16T14:54:11;19.70;49.50
14370;DHT22;7268;50.792;0.252;2023-05-16T14:56:41;19.70;49.20
14370;DHT22;7268;50.792;0.252;2023-05-16T14:59:09;19.60;49.30
14370;DHT22;7268;50.792;0.252;2023-05-16T15:01:35;19.90;49.00
14370;DHT22;7268;50.792;0.252;2023-05-16T15:04:03;20.10;47.90
14370;DHT22;7268;50.792;0.252;2023-05-16T15:06:30;19.90;48.80
14370;DHT22;7268;50.792;0.252;2023-05-16T15:08:57;19.60;48.60
14370;DHT22;7268;50.792;0.252;2023-05-16T15:11:24;19.50;49.40
14370;DHT22;7268;50.792;0.252;2023-05-16T15:13:51;19.60;50.80
14370;DHT22;7268;50.792;0.252;2023-05-16T15:16:19;19.60;49.30
14370;DHT22;7268;50.792;0.252;2023-05-16T15:18:47;19.20;49.80
14370;DHT22;7268;50.792;0.252;2023-05-16T15:21:18;18.70;48.40
14370;DHT22;7268;50.792;0.252;2023-05-16T15:23:50;19.00;50.50
14370;DHT22;7268;50.792;0.252;2023-05-16T15:26:35;19.30;52.00
14370;DHT22;7268;50.792;0.252;2023-05-16T15:29:05;19.60;49.30
14370;DHT22;7268;50.792;0.252;2023-05-16T15:31:33;19.20;50.40
14370;DHT22;7268;50.792;0.252;2023-05-16T15:34:03;18.80;50.80
14370;DHT22;7268;50.792;0.252;2023-05-16T15:36:32;18.60;52.60
14370;DHT22;7268;50.792;0.252;2023-05-16T15:39:03;18.50;52.70
14370;DHT22;7268;50.792;0.252;2023-05-16T15:41:37;18.70;50.70
14370;DHT22;7268;50.792;0.252;2023-05-16T15:44:18;18.70;49.60
14370;DHT22;7268;50.792;0.252;2023-05-16T15:46:45;18.80;50.50
14370;DHT22;7268;50.792;0.252;2023-05-16T15:49:13;19.10;50.90
14370;DHT22;7268;50.792;0.252;2023-05-16T15:51:42;19.30;49.60
14370;DHT22;7268;50.792;0.252;2023-05-16T15:54:10;19.30;52.00
14370;DHT22;7268;50.792;0.252;2023-05-16T15:56:38;19.20;49.50
14370;DHT22;7268;50.792;0.252;2023-05-16T15:59:05;18.90;51.50
14370;DHT22;7268;50.792;0.252;2023-05-16T16:01:34;18.70;51.70
14370;DHT22;7268;50.792;0.252;2023-05-16T16:04:02;18.60;51.50
14370;DHT22;7268;50.792;0.252;2023-05-16T16:06:29;18.50;51.20
14370;DHT22;7268;50.792;0.252;2023-05-16T16:08:57;18.50;52.00
14370;DHT22;7268;50.792;0.252;2023-05-16T16:11:25;18.40;51.70
14370;DHT22;7268;50.792;0.252;2023-05-16T16:13:52;18.20;51.20
14370;DHT22;7268;50.792;0.252;2023-05-16T16:16:19;18.30;50.60
14370;DHT22;7268;50.792;0.252;2023-05-16T16:18:47;18.40;51.20
14370;DHT22;7268;50.792;0.252;2023-05-16T16:21:20;18.40;51.00
14370;DHT22;7268;50.792;0.252;2023-05-16T16:24:01;18.60;53.50
14370;DHT22;7268;50.792;0.252;2023-05-16T16:26:32;18.90;51.10
14370;DHT22;7268;50.792;0.252;2023-05-16T16:28:59;18.80;50.70